createdAt,value
2017-05-15T00:07:45.093Z,0
2017-05-15T00:17:55.445Z,0
2017-05-15T00:28:05.898Z,0
2017-05-15T00:38:16.220Z,0
2017-05-15T00:48:26.694Z,0
2017-05-15T00:58:37.142Z,0
2017-05-15T01:08:47.628Z,0
2017-05-15T01:18:58.159Z,0
2017-05-15T01:29:08.695Z,0
2017-05-15T01:39:19.301Z,0
2017-05-15T01:49:29.874Z,0
2017-05-15T01:59:40.472Z,0
2017-05-15T02:09:51.070Z,0
2017-05-15T02:20:01.664Z,0
2017-05-15T02:30:12.191Z,0
2017-05-15T02:40:22.688Z,0
2017-05-15T02:50:33.175Z,0
2017-05-15T03:00:43.685Z,0
2017-05-15T03:10:54.171Z,0
2017-05-15T03:21:04.705Z,0
2017-05-15T03:31:15.230Z,10
2017-05-15T03:41:25.684Z,25
2017-05-15T03:51:36.179Z,45
2017-05-15T04:01:46.611Z,75
2017-05-15T04:11:56.938Z,105
2017-05-15T04:22:07.155Z,140
2017-05-15T04:32:17.195Z,165
2017-05-15T04:42:27.113Z,205
2017-05-15T04:52:36.943Z,225
2017-05-15T05:02:46.687Z,240
2017-05-15T05:12:56.309Z,250
2017-05-15T05:23:05.726Z,270
2017-05-15T05:33:15.095Z,370
2017-05-15T05:43:24.298Z,490
2017-05-15T05:53:33.453Z,545
2017-05-15T06:03:42.539Z,710
2017-05-15T06:13:51.537Z,880
2017-05-15T06:24:00.365Z,940
2017-05-15T06:34:09.084Z,1180
2017-05-15T06:44:17.680Z,1240
2017-05-15T06:54:26.191Z,1395
2017-05-15T07:04:34.652Z,1550
2017-05-15T07:14:43.120Z,1725
2017-05-15T07:24:51.485Z,1805
2017-05-15T07:34:59.825Z,1930
2017-05-15T07:45:08.059Z,2005
2017-05-15T07:55:16.279Z,2125
2017-05-15T08:05:24.342Z,2365
2017-05-15T08:15:32.394Z,2360
2017-05-15T08:25:40.369Z,2440
2017-05-15T08:35:48.287Z,2625
2017-05-15T08:45:56.121Z,2675
2017-05-15T08:56:03.956Z,2875
2017-05-15T09:06:11.750Z,2985
2017-05-15T09:16:19.521Z,3295
2017-05-15T09:26:27.260Z,3165
2017-05-15T09:36:34.878Z,3360
2017-05-15T09:46:42.465Z,3230
2017-05-15T09:56:49.972Z,3560
2017-05-15T10:06:57.427Z,1245
2017-05-15T10:17:04.934Z,3935
2017-05-15T10:27:12.443Z,4050
2017-05-15T10:37:19.673Z,3925
2017-05-15T10:47:26.899Z,3800
2017-05-15T10:57:34.237Z,3810
2017-05-15T11:07:41.608Z,3845
2017-05-15T11:17:49.036Z,3830
2017-05-15T11:27:56.572Z,3770
2017-05-15T11:38:03.918Z,3780
2017-05-15T11:48:11.514Z,3770
2017-05-15T11:58:19.069Z,3650
2017-05-15T12:08:26.578Z,3520
2017-05-15T12:18:33.990Z,3720
2017-05-15T12:28:41.443Z,3335
2017-05-15T12:38:48.849Z,2995
2017-05-15T12:48:56.221Z,3310
2017-05-15T12:59:03.522Z,2355
2017-05-15T13:09:10.767Z,3260
2017-05-15T13:19:17.965Z,2845
2017-05-15T13:29:25.369Z,2830
2017-05-15T13:39:32.715Z,2750
2017-05-15T13:49:40.054Z,850
2017-05-15T13:59:47.498Z,2260
2017-05-15T14:09:54.888Z,2415
2017-05-15T14:20:02.171Z,2260
2017-05-15T14:30:09.399Z,2210
2017-05-15T14:40:16.523Z,2140
2017-05-15T14:50:23.661Z,2115
2017-05-15T15:00:30.877Z,2170
2017-05-15T15:10:38.073Z,1780
2017-05-15T15:20:45.539Z,730
2017-05-15T15:30:53.174Z,1575
2017-05-15T15:41:00.644Z,1405
2017-05-15T15:51:07.912Z,1285
2017-05-15T16:01:15.104Z,1170
2017-05-15T16:11:22.370Z,1180
2017-05-15T16:21:29.687Z,1030
2017-05-15T16:31:36.969Z,805
2017-05-15T16:41:44.288Z,575
2017-05-15T16:51:51.726Z,470
2017-05-15T17:01:59.311Z,365
2017-05-15T17:12:07.176Z,425
2017-05-15T17:22:15.150Z,420
2017-05-15T17:32:23.198Z,360
2017-05-15T17:42:31.328Z,265
2017-05-15T17:52:39.695Z,215
2017-05-15T18:02:48.229Z,180
2017-05-15T18:12:56.904Z,145
2017-05-15T18:23:05.692Z,125
2017-05-15T18:33:14.566Z,100
2017-05-15T18:43:23.531Z,65
2017-05-15T18:53:32.551Z,45
2017-05-15T19:03:41.637Z,25
2017-05-15T19:13:50.813Z,10
2017-05-15T19:24:00.056Z,5
2017-05-15T19:34:09.352Z,0
2017-05-15T19:44:18.623Z,0
2017-05-15T19:54:27.930Z,0
2017-05-15T20:04:37.222Z,0
2017-05-15T20:14:46.551Z,0
2017-05-15T20:24:55.979Z,0
2017-05-15T20:35:05.303Z,0
2017-05-15T20:45:14.652Z,0
2017-05-15T20:55:23.999Z,0
2017-05-15T21:05:33.326Z,0
2017-05-15T21:15:42.634Z,0
2017-05-15T21:25:51.981Z,0
2017-05-15T21:36:01.377Z,0
2017-05-15T21:46:10.726Z,0
2017-05-15T21:56:20.121Z,0
2017-05-15T22:06:29.548Z,0
2017-05-15T22:16:39.031Z,0
2017-05-15T22:26:48.509Z,0
2017-05-15T22:36:57.995Z,0
2017-05-15T22:47:07.477Z,0
2017-05-15T22:57:16.928Z,0
2017-05-15T23:07:26.398Z,0
2017-05-15T23:17:35.882Z,0
2017-05-15T23:27:45.408Z,0
2017-05-15T23:37:54.947Z,0
2017-05-15T23:48:04.524Z,0
2017-05-15T23:58:14.143Z,0
